Time;durP1;ratioP1;P1;durP2;ratioP2;P2;SDS_P1;SDS_P2;PMS_P1;PMS_P2;Temp;Humidity;BMP_temperature;BMP_pressure;BME280_temperature;BME280_humidity;BME280_pressure;Samples;Min_cycle;Max_cycle;Signal;HPM_P1;HPM_P2
2022/05/28 00:00:35;;;;;;;116.00;104.03;;;12.30;94.40;;;;;;4977653;28;20055;-75
2022/05/28 00:03:03;;;;;;;115.82;104.53;;;12.40;94.30;;;;;;4993346;28;20413;-75
2022/05/28 00:05:30;;;;;;;116.53;104.53;;;12.40;94.20;;;;;;4976788;28;20047;-75
2022/05/28 00:07:57;;;;;;;115.93;104.72;;;12.40;94.10;;;;;;4992624;28;20042;-75
2022/05/28 00:10:24;;;;;;;115.90;104.53;;;12.30;94.20;;;;;;4993493;28;20053;-75
2022/05/28 00:12:53;;;;;;;117.80;105.60;;;12.30;94.20;;;;;;4976923;28;20163;-75
2022/05/28 00:15:19;;;;;;;114.90;103.57;;;12.40;94.20;;;;;;4993667;28;20058;-74
2022/05/28 00:17:47;;;;;;;117.05;105.55;;;12.40;94.10;;;;;;4993954;28;20429;-75
2022/05/28 00:20:14;;;;;;;114.97;103.50;;;12.40;94.10;;;;;;4993498;28;20205;-75
2022/05/28 00:22:43;;;;;;;115.80;104.20;;;12.40;94.20;;;;;;4993097;28;20074;-75
2022/05/28 00:25:13;;;;;;;115.50;104.00;;;12.40;94.30;;;;;;4977363;28;20047;-75
2022/05/28 00:27:41;;;;;;;117.55;105.25;;;12.40;94.50;;;;;;4994316;28;20051;-75
2022/05/28 00:30:12;;;;;;;116.07;104.13;;;12.40;94.50;;;;;;4976777;28;20059;-75
2022/05/28 00:32:40;;;;;;;116.90;105.38;;;12.40;94.50;;;;;;4976893;28;20043;-75
2022/05/28 00:35:11;;;;;;;114.97;103.45;;;12.40;94.60;;;;;;4992954;28;20062;-75
2022/05/28 00:37:38;;;;;;;117.20;105.50;;;12.40;94.60;;;;;;4994101;28;20059;-75
2022/05/28 00:40:09;;;;;;;116.53;105.13;;;12.40;94.60;;;;;;4992771;28;20082;-75
2022/05/28 00:42:35;;;;;;;115.75;104.28;;;12.40;94.50;;;;;;4993895;28;20081;-75
2022/05/28 00:45:03;;;;;;;116.30;104.75;;;12.30;94.30;;;;;;4992427;28;20130;-74
2022/05/28 00:47:32;;;;;;;114.60;103.35;;;12.40;94.20;;;;;;4993813;28;20055;-75
2022/05/28 00:49:59;;;;;;;114.50;103.47;;;12.30;94.10;;;;;;4976592;28;20050;-75
2022/05/28 00:52:28;;;;;;;113.13;102.03;;;12.20;94.20;;;;;;4993219;28;20057;-75
2022/05/28 00:54:55;;;;;;;113.97;102.90;;;12.20;94.10;;;;;;4976656;28;20496;-75
2022/05/28 00:57:24;;;;;;;114.50;103.30;;;12.10;94.10;;;;;;4992441;28;20141;-75
2022/05/28 00:59:51;;;;;;;113.57;102.50;;;12.10;94.10;;;;;;4960542;28;20055;-74
2022/05/28 01:02:22;;;;;;;115.70;103.93;;;12.10;94.20;;;;;;4992755;28;20051;-75
2022/05/28 01:04:56;;;;;;;114.18;102.47;;;12.10;94.30;;;;;;4976602;28;20517;-75
2022/05/28 01:07:31;;;;;;;113.70;102.72;;;12.00;94.30;;;;;;4992094;28;20548;-75
2022/05/28 01:10:06;;;;;;;113.85;102.55;;;12.00;94.40;;;;;;4993727;28;20053;-75
2022/05/28 01:12:39;;;;;;;114.10;102.97;;;12.00;94.50;;;;;;4992783;28;20708;-75
2022/05/28 01:15:13;;;;;;;115.60;103.65;;;11.90;94.50;;;;;;4976161;28;20039;-75
2022/05/28 01:17:44;;;;;;;115.75;104.55;;;11.90;94.70;;;;;;4993588;28;20061;-75
2022/05/28 01:20:18;;;;;;;114.47;103.10;;;11.90;94.70;;;;;;4975927;28;20578;-75
2022/05/28 01:23:11;;;;;;;114.82;103.72;;;11.80;94.80;;;;;;4993712;28;20063;-75
2022/05/28 01:25:56;;;;;;;116.00;104.72;;;11.80;94.80;;;;;;4993387;28;20061;-75
2022/05/28 01:28:27;;;;;;;115.65;104.00;;;11.80;94.90;;;;;;4991789;28;20057;-75
2022/05/28 01:30:55;;;;;;;115.60;104.30;;;11.70;94.90;;;;;;4976363;28;20527;-75
2022/05/28 01:33:23;;;;;;;115.00;103.47;;;11.70;94.90;;;;;;4993716;28;20134;-75
2022/05/28 01:35:53;;;;;;;113.70;102.43;;;11.70;94.90;;;;;;4993249;28;20055;-74
2022/05/28 01:38:21;;;;;;;115.15;103.78;;;11.70;94.90;;;;;;4975115;28;20057;-75
2022/05/28 01:40:49;;;;;;;115.47;103.97;;;11.70;94.90;;;;;;4975789;28;20046;-75
2022/05/28 01:43:19;;;;;;;115.47;104.03;;;11.70;94.80;;;;;;4991396;28;20457;-75
2022/05/28 01:45:50;;;;;;;114.28;103.22;;;11.60;94.80;;;;;;4993520;28;20437;-75
2022/05/28 01:48:19;;;;;;;117.43;105.63;;;11.60;94.70;;;;;;4990325;28;20057;-75
2022/05/28 01:50:49;;;;;;;116.88;105.53;;;11.60;94.80;;;;;;4974166;28;20567;-75
2022/05/28 01:56:01;;;;;;;115.03;103.60;;;11.50;94.70;;;;;;4973372;28;20124;-75
2022/05/28 01:58:28;;;;;;;114.03;102.72;;;11.50;94.70;;;;;;4992844;28;20081;-75
2022/05/28 02:00:57;;;;;;;116.85;105.03;;;11.40;94.60;;;;;;4993380;28;20062;-75
2022/05/28 02:03:25;;;;;;;114.57;103.18;;;11.40;94.70;;;;;;4993492;28;20134;-75
2022/05/28 02:05:52;;;;;;;114.72;103.32;;;11.40;94.70;;;;;;4975518;28;20548;-75
2022/05/28 02:08:19;;;;;;;115.75;103.85;;;11.40;94.80;;;;;;4991488;28;20539;-74
2022/05/28 02:10:53;;;;;;;116.57;104.88;;;11.40;94.80;;;;;;4975644;28;20142;-75
2022/05/28 02:13:26;;;;;;;114.20;102.95;;;11.30;94.90;;;;;;4993398;28;20133;-75
2022/05/28 02:16:01;;;;;;;114.03;102.55;;;11.30;94.90;;;;;;4975167;28;20050;-74
2022/05/28 02:18:36;;;;;;;115.32;103.47;;;11.30;94.90;;;;;;4990853;28;20062;-75
2022/05/28 02:21:08;;;;;;;114.88;103.72;;;11.20;94.80;;;;;;4992709;28;20053;-75
2022/05/28 02:23:41;;;;;;;115.05;103.25;;;11.20;94.90;;;;;;4975651;28;20055;-74
2022/05/28 02:26:10;;;;;;;115.70;103.85;;;11.20;94.90;;;;;;4975135;28;20042;-75
2022/05/28 02:28:37;;;;;;;115.78;103.65;;;11.20;94.80;;;;;;4992824;28;20503;-75
2022/05/28 02:31:13;;;;;;;116.75;104.90;;;11.20;94.80;;;;;;4991190;28;20055;-74
2022/05/28 02:33:41;;;;;;;114.75;103.38;;;11.10;94.80;;;;;;4993180;28;20114;-74
2022/05/28 02:36:08;;;;;;;116.28;104.40;;;11.10;94.80;;;;;;4975079;28;20039;-75
2022/05/28 02:38:35;;;;;;;115.78;103.70;;;11.00;94.90;;;;;;4990798;28;20639;-74
2022/05/28 02:41:02;;;;;;;113.93;102.38;;;11.00;94.90;;;;;;4992899;28;20050;-75
2022/05/28 02:43:31;;;;;;;115.78;104.18;;;11.00;95.00;;;;;;4992444;28;20129;-75
2022/05/28 02:45:58;;;;;;;115.05;103.55;;;10.90;95.00;;;;;;4992593;28;20050;-74
2022/05/28 02:48:26;;;;;;;114.93;103.35;;;10.90;95.00;;;;;;4990900;28;20089;-74
2022/05/28 02:50:53;;;;;;;115.07;103.45;;;10.90;95.00;;;;;;4974721;28;20047;-75
2022/05/28 02:53:20;;;;;;;115.95;104.03;;;10.90;95.10;;;;;;4992406;28;20130;-75
2022/05/28 02:55:47;;;;;;;114.38;102.93;;;10.80;95.10;;;;;;4974798;28;20620;-74
2022/05/28 02:58:15;;;;;;;115.28;103.50;;;10.80;95.10;;;;;;4990418;28;20504;-74
2022/05/28 03:00:42;;;;;;;115.75;103.95;;;10.80;95.10;;;;;;4991918;28;20066;-74
2022/05/28 03:03:09;;;;;;;115.32;103.63;;;10.80;95.10;;;;;;4992401;28;20596;-75
2022/05/28 03:05:37;;;;;;;116.30;104.43;;;10.80;95.00;;;;;;4974625;28;20126;-74
2022/05/28 03:08:04;;;;;;;114.93;102.93;;;10.70;94.90;;;;;;4976292;28;20142;-74
2022/05/28 03:10:31;;;;;;;114.88;103.07;;;10.70;94.90;;;;;;4995338;28;20142;-74
2022/05/28 03:12:58;;;;;;;114.53;103.32;;;10.70;95.00;;;;;;4995322;28;20059;-74
2022/05/28 03:15:25;;;;;;;114.40;102.80;;;10.70;94.90;;;;;;4995356;28;20112;-74
2022/05/28 03:17:52;;;;;;;115.57;103.82;;;10.70;94.90;;;;;;4994778;28;20584;-74
2022/05/28 03:20:19;;;;;;;114.72;103.10;;;10.60;94.90;;;;;;4994012;28;20055;-74
2022/05/28 03:22:47;;;;;;;115.63;103.88;;;10.60;94.80;;;;;;4995003;28;20537;-74
2022/05/28 03:25:14;;;;;;;116.10;104.15;;;10.60;94.70;;;;;;4994932;28;20049;-74
2022/05/28 03:27:41;;;;;;;115.15;103.40;;;10.50;94.80;;;;;;4995141;28;20137;-75
2022/05/28 03:30:09;;;;;;;115.78;103.93;;;10.50;94.80;;;;;;4993829;28;20055;-74
2022/05/28 03:32:36;;;;;;;114.38;103.00;;;10.60;94.90;;;;;;4995062;28;20519;-74
2022/05/28 03:35:03;;;;;;;116.35;104.40;;;10.50;94.80;;;;;;4976419;28;20063;-74
2022/05/28 03:37:30;;;;;;;113.45;101.93;;;10.50;94.80;;;;;;4958016;28;20063;-75
2022/05/28 03:39:59;;;;;;;114.47;102.68;;;10.50;94.90;;;;;;4975078;28;20059;-75
2022/05/28 03:42:26;;;;;;;115.22;103.30;;;10.50;94.90;;;;;;4957915;28;20051;-75
2022/05/28 03:44:52;;;;;;;116.43;104.40;;;10.50;94.90;;;;;;4958000;28;20059;-74
2022/05/28 03:47:19;;;;;;;113.60;101.90;;;10.50;94.90;;;;;;4974836;28;20055;-74
2022/05/28 03:49:46;;;;;;;114.18;102.35;;;10.40;94.90;;;;;;4958462;28;20058;-74
2022/05/28 03:52:14;;;;;;;115.35;103.57;;;10.40;95.00;;;;;;4958243;28;20325;-75
2022/05/28 03:54:43;;;;;;;112.82;101.20;;;10.40;95.10;;;;;;4975441;28;20057;-74
2022/05/28 03:57:14;;;;;;;117.20;105.20;;;10.40;95.10;;;;;;4974911;28;20176;-74
2022/05/28 03:59:41;;;;;;;115.25;103.10;;;10.40;95.20;;;;;;4974089;28;20059;-74
2022/05/28 04:02:08;;;;;;;115.60;102.90;;;10.30;95.20;;;;;;4957905;28;20126;-74
2022/05/28 04:04:35;;;;;;;113.53;102.03;;;10.30;95.30;;;;;;4974866;28;20173;-74
2022/05/28 04:07:02;;;;;;;117.53;105.32;;;10.30;95.20;;;;;;4957285;28;20055;-75
2022/05/28 04:09:30;;;;;;;116.22;104.20;;;10.30;95.30;;;;;;4957615;28;20146;-74
2022/05/28 04:11:57;;;;;;;116.22;104.32;;;10.30;95.30;;;;;;4973628;28;20059;-74
2022/05/28 04:14:25;;;;;;;115.70;103.72;;;10.30;95.40;;;;;;4956482;28;20134;-74
2022/05/28 04:16:52;;;;;;;114.85;103.30;;;10.30;95.40;;;;;;4973481;28;20055;-74
2022/05/28 04:19:19;;;;;;;115.25;103.28;;;10.30;95.50;;;;;;4955961;28;20141;-74
2022/05/28 04:21:47;;;;;;;114.13;102.32;;;10.30;95.50;;;;;;4974924;28;20437;-74
2022/05/28 04:24:15;;;;;;;115.63;103.45;;;10.30;95.50;;;;;;4957119;28;20051;-74
2022/05/28 04:26:42;;;;;;;116.00;104.10;;;10.30;95.60;;;;;;4957280;28;20051;-74
2022/05/28 04:29:09;;;;;;;114.63;103.05;;;10.30;95.60;;;;;;4974414;28;20135;-74
2022/05/28 04:31:37;;;;;;;115.60;102.68;;;10.30;95.70;;;;;;4957735;28;20139;-74
2022/05/28 04:34:04;;;;;;;114.75;102.97;;;10.30;95.70;;;;;;4974958;28;20051;-74
2022/05/28 04:36:31;;;;;;;115.75;103.38;;;10.30;95.70;;;;;;4974669;28;20162;-74
2022/05/28 04:38:58;;;;;;;116.63;104.35;;;10.30;95.70;;;;;;4981598;28;20086;-74
2022/05/28 04:41:25;;;;;;;115.82;103.80;;;10.40;95.70;;;;;;4966337;28;20062;-74
2022/05/28 04:43:52;;;;;;;115.90;103.63;;;10.40;95.60;;;;;;4959570;28;20051;-74
2022/05/28 04:46:19;;;;;;;117.70;105.25;;;10.40;95.60;;;;;;4956804;28;20062;-74
2022/05/28 04:48:47;;;;;;;115.47;103.43;;;10.50;95.60;;;;;;4974272;28;20066;-74
2022/05/28 04:51:15;;;;;;;115.13;103.05;;;10.50;95.50;;;;;;4973973;28;20839;-74
2022/05/28 04:53:41;;;;;;;115.38;103.25;;;10.50;95.50;;;;;;4973771;28;20047;-74
2022/05/28 04:56:09;;;;;;;116.35;104.28;;;10.50;95.50;;;;;;4956200;28;20047;-76
2022/05/28 04:58:35;;;;;;;115.57;103.63;;;10.50;95.50;;;;;;4973638;28;20090;-75
2022/05/28 05:01:02;;;;;;;120.20;107.20;;;10.60;95.50;;;;;;4956138;28;20047;-75
2022/05/28 05:03:29;;;;;;;114.28;102.60;;;10.60;95.40;;;;;;4955928;28;20053;-76
2022/05/28 05:05:57;;;;;;;117.72;105.28;;;10.60;95.30;;;;;;4956599;28;20139;-76
2022/05/28 05:08:24;;;;;;;117.35;105.43;;;10.60;95.40;;;;;;4954230;28;20537;-75
2022/05/28 05:10:51;;;;;;;115.10;103.20;;;10.60;95.60;;;;;;4955572;28;20047;-76
2022/05/28 05:13:18;;;;;;;117.55;105.28;;;10.60;95.40;;;;;;4956538;28;20051;-74
2022/05/28 05:15:45;;;;;;;115.10;103.47;;;10.70;95.30;;;;;;4954141;28;20142;-74
2022/05/28 05:18:12;;;;;;;117.30;105.38;;;10.70;95.20;;;;;;4972423;28;20090;-74
2022/05/28 05:20:39;;;;;;;120.30;107.70;;;10.70;95.20;;;;;;4954309;28;20106;-74
2022/05/28 05:23:07;;;;;;;118.18;105.78;;;10.70;95.20;;;;;;4954080;28;20514;-73
2022/05/28 05:25:34;;;;;;;116.05;104.05;;;10.70;95.30;;;;;;4954379;28;20043;-76
2022/05/28 05:28:01;;;;;;;114.93;102.70;;;10.70;95.40;;;;;;4980592;28;20050;-73
2022/05/28 05:30:28;;;;;;;115.32;103.10;;;10.80;95.50;;;;;;4965505;28;20055;-74
2022/05/28 05:32:55;;;;;;;115.03;103.45;;;10.80;95.50;;;;;;4992306;28;20154;-76
2022/05/28 05:35:23;;;;;;;117.00;104.80;;;10.80;95.60;;;;;;4992041;28;20051;-74
2022/05/28 05:37:50;;;;;;;115.57;103.60;;;10.90;95.50;;;;;;4991738;28;20057;-73
2022/05/28 05:40:18;;;;;;;116.88;104.80;;;10.90;95.40;;;;;;4991660;28;20054;-75
2022/05/28 05:42:45;;;;;;;116.55;104.50;;;10.90;95.30;;;;;;4991126;28;20043;-73
2022/05/28 05:45:13;;;;;;;116.13;103.90;;;10.90;95.30;;;;;;4991742;28;20055;-73
2022/05/28 05:47:40;;;;;;;115.90;103.80;;;11.00;95.30;;;;;;4992870;28;20134;-73
2022/05/28 05:50:08;;;;;;;113.40;101.40;;;11.00;95.20;;;;;;4991849;28;20519;-73
2022/05/28 05:52:35;;;;;;;115.45;103.30;;;11.00;95.30;;;;;;4975626;28;20524;-74
2022/05/28 05:55:02;;;;;;;116.57;104.57;;;11.10;95.30;;;;;;4975596;28;20074;-74
2022/05/28 05:57:30;;;;;;;116.90;104.38;;;11.10;95.30;;;;;;4991509;28;20059;-75
2022/05/28 05:59:57;;;;;;;116.57;104.53;;;11.10;95.50;;;;;;4989749;28;20095;-76
2022/05/28 06:02:24;;;;;;;116.03;104.35;;;11.10;95.60;;;;;;4983755;28;20438;-74
2022/05/28 06:04:51;;;;;;;119.38;106.68;;;11.20;95.50;;;;;;4981585;28;20047;-75
2022/05/28 06:07:18;;;;;;;119.50;107.10;;;11.20;95.50;;;;;;4980247;28;20121;-72
2022/05/28 06:09:45;;;;;;;116.85;104.60;;;11.20;95.60;;;;;;4960173;28;20074;-74
2022/05/28 06:12:12;;;;;;;116.93;104.93;;;11.30;95.60;;;;;;4964297;28;20052;-76
2022/05/28 06:14:40;;;;;;;119.55;107.35;;;11.30;95.50;;;;;;4971449;28;20050;-73
2022/05/28 06:17:07;;;;;;;119.25;107.07;;;11.30;95.40;;;;;;4980199;28;20043;-77
2022/05/28 06:19:34;;;;;;;116.85;105.28;;;11.30;95.70;;;;;;4969693;28;20130;-74
2022/05/28 06:22:01;;;;;;;118.03;106.18;;;11.30;95.40;;;;;;4956884;28;20138;-74
2022/05/28 06:24:29;;;;;;;115.47;104.18;;;11.30;95.20;;;;;;4978875;28;20078;-74
2022/05/28 06:27:00;;;;;;;117.20;105.20;;;11.30;95.00;;;;;;4963520;28;20509;-72
2022/05/28 06:29:28;;;;;;;115.45;103.97;;;11.40;94.90;;;;;;4994482;28;20043;-75
2022/05/28 06:31:56;;;;;;;117.60;105.90;;;11.40;95.00;;;;;;4983173;28;20046;-74
2022/05/28 06:34:23;;;;;;;118.78;106.93;;;11.40;95.00;;;;;;4980448;28;20077;-72
2022/05/28 06:36:50;;;;;;;118.15;106.43;;;11.40;95.00;;;;;;4967269;28;20055;-72
2022/05/28 06:39:17;;;;;;;117.50;105.63;;;11.40;95.10;;;;;;4972300;28;20110;-73
2022/05/28 06:41:44;;;;;;;115.25;103.65;;;11.40;95.00;;;;;;4974556;28;20534;-72
2022/05/28 06:44:13;;;;;;;115.25;103.78;;;11.40;95.20;;;;;;4974828;28;20485;-71
2022/05/28 06:46:40;;;;;;;116.72;105.03;;;11.50;95.50;;;;;;4951043;28;20501;-72
2022/05/28 06:49:08;;;;;;;115.40;103.80;;;11.50;95.70;;;;;;4962286;28;20053;-76
2022/05/28 06:51:35;;;;;;;116.72;105.18;;;11.60;95.50;;;;;;4975657;28;20150;-72
2022/05/28 06:54:02;;;;;;;117.05;105.40;;;11.60;95.40;;;;;;4961692;28;20055;-71
2022/05/28 06:56:29;;;;;;;118.15;105.85;;;11.60;95.40;;;;;;4868893;28;20131;-72
2022/05/28 06:58:56;;;;;;;117.10;105.03;;;11.70;95.50;;;;;;5002823;28;20054;-72
2022/05/28 07:01:23;;;;;;;117.10;104.78;;;11.70;95.60;;;;;;4979715;28;20140;-74
2022/05/28 07:03:50;;;;;;;117.20;105.18;;;11.80;95.70;;;;;;4974407;28;20219;-79
2022/05/28 07:06:18;;;;;;;117.68;105.50;;;11.80;95.60;;;;;;4975402;28;20146;-75
2022/05/28 07:08:45;;;;;;;115.78;103.85;;;11.90;95.50;;;;;;4975741;28;20066;-75
2022/05/28 07:11:12;;;;;;;116.00;104.13;;;11.90;95.50;;;;;;4975260;28;20054;-75
2022/05/28 07:13:39;;;;;;;119.63;107.35;;;12.00;95.70;;;;;;4973845;28;20510;-77
2022/05/28 07:16:08;;;;;;;118.47;106.22;;;12.00;95.60;;;;;;4974759;28;20824;-76
2022/05/28 07:18:36;;;;;;;118.28;106.05;;;12.00;95.60;;;;;;4989562;28;20118;-75
2022/05/28 07:21:04;;;;;;;118.38;106.25;;;12.00;95.80;;;;;;4974616;28;20059;-76
2022/05/28 07:23:32;;;;;;;116.45;104.78;;;12.00;95.80;;;;;;4976017;28;20055;-75
2022/05/28 07:26:02;;;;;;;114.90;103.38;;;12.00;95.70;;;;;;4991497;28;20597;-76
2022/05/28 07:28:31;;;;;;;115.28;103.85;;;12.00;95.90;;;;;;4976157;28;20394;-77
2022/05/28 07:31:00;;;;;;;115.03;103.65;;;12.00;95.90;;;;;;4975905;28;20157;-75
2022/05/28 07:33:29;;;;;;;116.70;105.03;;;12.00;96.00;;;;;;4979241;28;20078;-76
2022/05/28 07:35:57;;;;;;;116.70;105.38;;;12.00;96.10;;;;;;4983218;28;20059;-75
2022/05/28 07:38:26;;;;;;;116.05;104.75;;;12.00;96.10;;;;;;4982655;28;20110;-76
2022/05/28 07:40:54;;;;;;;115.43;103.93;;;12.00;96.20;;;;;;4996512;28;20049;-74
2022/05/28 07:43:22;;;;;;;117.10;105.57;;;12.00;96.40;;;;;;4985644;28;20145;-76
2022/05/28 07:45:49;;;;;;;115.93;104.35;;;12.00;96.30;;;;;;4984304;28;20947;-81
2022/05/28 07:48:17;;;;;;;116.03;104.60;;;12.00;96.30;;;;;;4979990;28;20085;-75
2022/05/28 07:50:44;;;;;;;115.40;104.10;;;12.00;96.30;;;;;;4997272;28;20110;-75
2022/05/28 07:53:12;;;;;;;118.20;106.50;;;12.00;96.40;;;;;;4980454;28;20052;-74
2022/05/28 07:55:40;;;;;;;118.78;106.80;;;12.00;96.30;;;;;;4984502;28;20153;-74
2022/05/28 07:58:10;;;;;;;117.82;105.88;;;12.00;96.40;;;;;;4987406;28;20062;-73
2022/05/28 08:00:42;;;;;;;116.82;105.20;;;12.00;96.30;;;;;;4988066;28;20130;-73
2022/05/28 08:03:09;;;;;;;116.47;105.03;;;12.00;96.50;;;;;;5004259;28;20050;-74
2022/05/28 08:05:37;;;;;;;118.35;106.65;;;12.10;96.50;;;;;;4988995;28;20051;-73
2022/05/28 08:08:05;;;;;;;117.78;106.05;;;12.10;96.70;;;;;;4988495;28;20057;-74
2022/05/28 08:10:32;;;;;;;118.07;106.13;;;12.10;96.80;;;;;;4986473;28;20055;-73
2022/05/28 08:13:04;;;;;;;117.55;105.45;;;12.10;97.00;;;;;;5000275;28;20057;-73
2022/05/28 08:15:33;;;;;;;116.38;104.88;;;12.20;96.90;;;;;;4987877;28;20492;-74
2022/05/28 08:18:00;;;;;;;117.82;106.13;;;12.20;97.20;;;;;;4987806;28;20568;-74
2022/05/28 08:23:11;;;;;;;119.75;107.47;;;12.40;97.20;;;;;;4981038;28;20056;-74
2022/05/28 08:25:39;;;;;;;119.90;107.75;;;12.40;97.10;;;;;;5018550;28;20126;-75
2022/05/28 08:28:06;;;;;;;119.43;107.05;;;12.40;97.00;;;;;;5003181;28;20059;-75
2022/05/28 08:30:35;;;;;;;118.43;106.57;;;12.50;97.00;;;;;;4986425;28;20062;-75
2022/05/28 08:33:02;;;;;;;121.07;108.50;;;12.50;97.10;;;;;;4999523;28;20515;-74
2022/05/28 08:35:29;;;;;;;121.03;108.43;;;12.50;96.80;;;;;;4984041;28;20075;-74
2022/05/28 08:37:57;;;;;;;119.53;107.25;;;12.60;96.50;;;;;;4984082;28;20819;-73
2022/05/28 08:40:24;;;;;;;116.78;104.90;;;12.60;96.30;;;;;;4973624;28;20545;-74
2022/05/28 08:42:51;;;;;;;116.00;104.55;;;12.60;96.00;;;;;;4973591;28;20051;-74
2022/05/28 08:45:18;;;;;;;117.38;105.57;;;12.70;95.30;;;;;;4973602;28;20047;-73
2022/05/28 08:47:49;;;;;;;116.43;104.72;;;12.70;95.30;;;;;;4974378;28;20162;-74
2022/05/28 08:50:16;;;;;;;117.85;105.55;;;12.80;95.10;;;;;;4973498;28;20502;-73
2022/05/28 08:52:49;;;;;;;118.82;106.82;;;12.80;94.40;;;;;;4974589;28;20138;-74
2022/05/28 08:55:22;;;;;;;117.90;105.90;;;12.80;94.60;;;;;;4975169;28;20081;-73
2022/05/28 08:57:57;;;;;;;118.38;106.20;;;12.90;94.10;;;;;;4972069;28;20130;-73
2022/05/28 09:00:32;;;;;;;117.32;105.63;;;12.90;94.20;;;;;;4972619;28;20054;-74
2022/05/28 09:03:05;;;;;;;119.03;106.80;;;12.90;94.10;;;;;;4983046;28;20445;-73
2022/05/28 09:05:35;;;;;;;119.43;107.18;;;12.90;93.90;;;;;;4993025;28;20109;-74
2022/05/28 09:08:05;;;;;;;119.78;107.03;;;12.90;93.80;;;;;;4987619;28;20059;-73
2022/05/28 09:10:36;;;;;;;117.63;105.82;;;12.90;94.20;;;;;;4981418;28;20053;-74
2022/05/28 09:13:08;;;;;;;121.43;109.45;;;13.00;94.10;;;;;;4981982;28;20486;-74
2022/05/28 09:15:38;;;;;;;117.00;105.07;;;13.00;93.80;;;;;;4983578;28;20087;-75
2022/05/28 09:18:09;;;;;;;118.38;106.68;;;13.10;93.70;;;;;;4988249;28;20074;-74
2022/05/28 09:20:40;;;;;;;117.85;105.65;;;13.20;93.20;;;;;;4993413;28;20078;-75
2022/05/28 09:23:07;;;;;;;120.10;107.88;;;13.20;93.00;;;;;;4990762;28;20057;-74
2022/05/28 09:25:41;;;;;;;119.38;107.25;;;13.20;92.40;;;;;;4991123;28;20604;-74
2022/05/28 09:28:24;;;;;;;119.65;107.65;;;13.20;92.30;;;;;;5007329;28;20066;-75
2022/05/28 09:30:59;;;;;;;122.05;109.10;;;13.20;92.10;;;;;;4983323;28;20052;-75
2022/05/28 09:33:51;;;;;;;121.10;108.60;;;13.20;92.30;;;;;;4984147;28;20049;-75
2022/05/28 09:36:26;;;;;;;117.18;105.40;;;13.20;92.80;;;;;;4988442;28;20493;-75
2022/05/28 09:39:09;;;;;;;115.53;103.97;;;13.20;92.50;;;;;;5005539;28;20053;-75
2022/05/28 09:41:54;;;;;;;118.38;106.68;;;13.20;91.70;;;;;;4990632;28;20144;-76
2022/05/28 09:44:34;;;;;;;118.78;106.78;;;13.30;91.10;;;;;;4981069;28;20061;-74
2022/05/28 09:47:07;;;;;;;120.03;107.90;;;13.30;91.50;;;;;;4984456;28;20166;-74
2022/05/28 09:49:47;;;;;;;117.82;106.50;;;13.40;90.60;;;;;;4991168;28;20611;-75
2022/05/28 09:52:20;;;;;;;118.82;106.88;;;13.40;90.50;;;;;;4984112;28;20105;-75
2022/05/28 09:54:46;;;;;;;118.85;106.85;;;13.40;90.80;;;;;;4981525;28;20397;-75
2022/05/28 09:57:22;;;;;;;119.35;107.25;;;13.40;91.00;;;;;;4982290;28;20440;-74
2022/05/28 09:59:55;;;;;;;121.63;109.40;;;13.50;91.20;;;;;;4987558;28;20074;-75
2022/05/28 10:02:25;;;;;;;120.20;108.20;;;13.50;90.10;;;;;;5005125;28;20054;-75
2022/05/28 10:04:56;;;;;;;118.90;107.13;;;13.50;90.50;;;;;;4982132;28;20055;-75
2022/05/28 10:07:31;;;;;;;122.22;110.25;;;13.50;90.70;;;;;;5001720;28;20057;-75
2022/05/28 10:09:59;;;;;;;116.63;104.90;;;13.60;90.30;;;;;;4996312;28;20518;-75
2022/05/28 10:12:28;;;;;;;117.90;106.30;;;13.60;90.40;;;;;;4982437;28;20513;-74
2022/05/28 10:15:04;;;;;;;117.30;105.70;;;13.50;90.20;;;;;;4983395;28;20051;-75
2022/05/28 10:17:32;;;;;;;119.80;107.70;;;13.50;90.30;;;;;;4983357;28;20051;-75
2022/05/28 10:20:03;;;;;;;118.82;106.97;;;13.50;90.30;;;;;;4994041;28;20055;-74
2022/05/28 10:22:31;;;;;;;118.32;106.95;;;13.50;89.70;;;;;;4995886;28;20077;-74
2022/05/28 10:25:01;;;;;;;119.80;107.90;;;13.50;89.90;;;;;;4995764;28;20061;-73
2022/05/28 10:27:33;;;;;;;119.22;107.13;;;13.50;90.60;;;;;;4994378;28;20054;-74
2022/05/28 10:30:03;;;;;;;118.22;106.80;;;13.60;90.90;;;;;;4995192;28;20114;-74
2022/05/28 10:32:34;;;;;;;118.95;106.90;;;13.70;90.80;;;;;;5011387;28;20054;-74
2022/05/28 10:35:08;;;;;;;120.45;108.60;;;13.70;90.50;;;;;;4996263;28;20059;-74
2022/05/28 10:37:36;;;;;;;122.28;110.53;;;13.80;90.10;;;;;;4995192;28;20050;-74
2022/05/28 10:40:08;;;;;;;122.13;109.95;;;13.80;90.00;;;;;;4978716;28;20460;-74
2022/05/28 10:42:37;;;;;;;120.75;108.80;;;13.90;88.30;;;;;;4991575;28;20130;-74
2022/05/28 10:45:06;;;;;;;120.93;108.68;;;13.90;89.50;;;;;;4991416;28;20055;-74
2022/05/28 10:47:52;;;;;;;120.07;108.25;;;13.90;90.00;;;;;;4974976;28;20048;-72
2022/05/28 10:50:26;;;;;;;117.47;105.93;;;13.90;90.40;;;;;;4976919;28;20051;-75
2022/05/28 10:53:08;;;;;;;116.93;105.50;;;13.90;90.50;;;;;;4976447;28;20052;-74
2022/05/28 10:55:46;;;;;;;115.97;104.57;;;13.90;90.60;;;;;;4976385;28;20089;-75
2022/05/28 10:58:31;;;;;;;116.72;105.45;;;13.90;90.50;;;;;;4991281;28;20057;-74
2022/05/28 11:01:00;;;;;;;;;;;13.90;90.50;;;;;;4991524;28;20059;-74
2022/05/28 11:03:51;;;;;;;116.30;104.85;;;13.90;90.90;;;;;;4991588;28;19930;-76
2022/05/28 11:06:46;;;;;;;118.93;106.97;;;13.90;90.70;;;;;;4975889;28;20577;-76
2022/05/28 11:09:19;;;;;;;118.30;107.00;;;13.90;90.60;;;;;;4975417;28;20155;-76
2022/05/28 11:11:59;;;;;;;121.75;109.63;;;13.90;90.70;;;;;;4976136;28;20130;-75
2022/05/28 11:14:58;;;;;;;118.88;107.13;;;13.90;90.10;;;;;;4973829;28;20206;-76
2022/05/28 11:17:46;;;;;;;118.38;106.57;;;13.90;90.40;;;;;;4990206;28;20505;-75
2022/05/28 11:20:22;;;;;;;120.80;108.60;;;13.90;90.20;;;;;;4975101;28;20055;-77
2022/05/28 11:23:12;;;;;;;117.72;106.22;;;13.90;90.30;;;;;;4990301;28;20075;-76
2022/05/28 11:25:57;;;;;;;116.25;104.85;;;13.90;90.70;;;;;;4977480;28;20063;-76
2022/05/28 11:28:40;;;;;;;117.25;105.70;;;14.00;89.70;;;;;;4999841;28;20078;-76
2022/05/28 11:31:18;;;;;;;117.13;105.82;;;14.00;89.60;;;;;;4981662;28;20130;-76
2022/05/28 11:33:48;;;;;;;118.53;107.15;;;13.90;90.00;;;;;;4976520;28;20086;-76
2022/05/28 11:36:26;;;;;;;118.85;106.88;;;13.90;90.40;;;;;;4983620;28;20043;-76
2022/05/28 11:38:59;;;;;;;120.10;108.28;;;14.00;89.50;;;;;;4981456;28;20191;-76
2022/05/28 11:41:34;;;;;;;119.25;107.25;;;14.00;88.90;;;;;;4998694;28;20142;-76
2022/05/28 11:44:05;;;;;;;;;;;14.00;88.70;;;;;;4985352;28;20090;-76
2022/05/28 11:46:38;;;;;;;118.88;107.00;;;14.00;89.60;;;;;;5004752;28;20028;-76
2022/05/28 11:52:05;;;;;;;119.13;107.32;;;14.00;88.40;;;;;;4990563;28;20051;-76
2022/05/28 11:54:38;;;;;;;116.85;105.20;;;14.10;89.40;;;;;;4990697;28;20063;-76
2022/05/28 11:57:10;;;;;;;118.90;107.20;;;14.20;88.20;;;;;;4973900;28;20078;-76
2022/05/28 11:59:39;;;;;;;118.88;107.28;;;14.20;84.20;;;;;;4990480;28;20366;-76
2022/05/28 12:02:10;;;;;;;118.93;107.03;;;14.30;81.60;;;;;;4973849;28;20513;-76
2022/05/28 12:04:40;;;;;;;119.65;107.85;;;14.30;83.30;;;;;;4990186;28;20058;-76
2022/05/28 12:07:11;;;;;;;122.10;110.18;;;14.40;84.00;;;;;;4973805;28;20059;-78
2022/05/28 12:09:44;;;;;;;118.57;106.93;;;14.40;84.20;;;;;;4973543;28;20099;-79
2022/05/28 12:12:21;;;;;;;122.03;110.00;;;14.50;85.30;;;;;;4973485;28;20051;-78
2022/05/28 12:15:01;;;;;;;119.57;107.65;;;14.40;85.40;;;;;;4972931;28;20074;-80
2022/05/28 12:17:30;;;;;;;119.60;107.72;;;14.50;84.20;;;;;;4973421;28;20052;-79
2022/05/28 12:20:00;;;;;;;119.55;107.80;;;14.50;84.20;;;;;;4973254;28;20613;-80
2022/05/28 12:22:30;;;;;;;119.30;107.68;;;14.50;84.40;;;;;;4971858;28;20085;-80
2022/05/28 12:28:11;;;;;;;120.85;108.70;;;14.50;82.50;;;;;;4992019;28;20059;-78
2022/05/28 12:30:51;;;;;;;119.35;107.55;;;14.40;81.60;;;;;;4982514;28;20128;-77
2022/05/28 12:33:23;;;;;;;119.78;108.07;;;14.40;81.30;;;;;;4977969;28;20079;-77